Supreme Ace — 3ETV4 — position and weather

sailwx.info

Track history (hours):
 
Tides and Currents Weather Stations Pressure Air Temp Water Temp Dewpoint Dewpoint Depression Visibility Wind Speed Wind Dir Waves Ship Positions

Supreme Ace

Last reported at 2017-Dec-03 08:47 UTC. Time now 2017-Dec-16 15:14 UTC.
Position N 33°57' W 123°28'.
Warning: this ship's position is 13 days out of date.

Length 200 m; draft 8.4 m.

Type: Cargo ship. MMSI: 357147000.

Date/timePositionNaut miles runAvg speedWind from/ knotsBaromVisibWave heightAir tempDewpointWater temp
2017-Dec-03 08:47N 33°57' W 123°28'818.8
2017-Dec-03 08:20N 33°59' W 123°19'718.9
2017-Dec-03 07:58N 34°00' W 123°10'918.7
2017-Dec-03 07:30N 34°02' W 123°00'918.6
2017-Dec-03 07:00N 34°05' W 122°49'918.8
2017-Dec-03 06:30N 34°06' W 122°38'918.5
2017-Dec-03 06:01N 34°09' W 122°27'918.2
2017-Dec-03 05:30N 34°11' W 122°17'918.2
2017-Dec-03 05:00N 34°12' W 122°06'918.0
2017-Dec-03 04:30N 34°14' W 121°55'918.2
2017-Dec-03 04:00N 34°16' W 121°44'918.4
2017-Dec-03 03:30N 34°18' W 121°33'918.5
2017-Dec-03 03:01N 34°20' W 121°23'918.5
2017-Dec-03 02:30N 34°22' W 121°11'918.7
2017-Dec-03 02:00N 34°23' W 121°00'918.7
2017-Dec-03 01:30N 34°25' W 120°49'918.1
2017-Dec-03 01:00N 34°23' W 120°38'918.2
2017-Dec-03 00:31N 34°21' W 120°28'918.5
2017-Dec-03 00:00N 34°18' W 120°17'918.7
2017-Dec-02 23:31N 34°16' W 120°06'918.9
2017-Dec-02 23:00N 34°13' W 119°55'1019.0
2017-Dec-02 22:30N 34°11' W 119°44'919.0
2017-Dec-02 22:00N 34°08' W 119°33'918.6
2017-Dec-02 21:29N 34°06' W 119°21'713.8
2017-Dec-02 21:00N 34°08' W 119°14'2 2.4
2017-Dec-02 20:18N 34°09' W 119°12'0 0.0
2017-Dec-02 19:54N 34°09' W 119°12'0 0.0
2017-Dec-02 19:30N 34°09' W 119°12'0 0.0
2017-Dec-02 17:15N 34°09' W 119°12'0 0.0
2017-Dec-02 15:57N 34°09' W 119°12'0 0.0
2017-Dec-02 15:21N 34°09' W 119°12'0 0.0
2017-Dec-02 14:42N 34°09' W 119°12'0 0.0
2017-Dec-02 14:30N 34°09' W 119°12'0 0.0
2017-Dec-02 13:57N 34°09' W 119°12'0 0.0
2017-Dec-02 13:30N 34°09' W 119°12'2 4.5
2017-Dec-02 13:00N 34°07' W 119°14'3 5.4
2017-Dec-02 12:30N 34°05' W 119°15'3 6.1
2017-Dec-02 11:59N 34°03' W 119°12'1 1.5
2017-Dec-02 11:30N 34°04' W 119°13'3 6.0
2017-Dec-02 11:00N 34°02' W 119°10'3 5.6
2017-Dec-02 10:30N 34°01' W 119°07'1 2.7
2017-Dec-02 10:00N 34°00' W 119°06'4 7.1
2017-Dec-02 09:30N 33°58' W 119°02'4 7.9
2017-Dec-02 09:00N 33°56' W 118°58'4 7.8
2017-Dec-02 08:30N 33°54' W 118°54'4 7.9
2017-Dec-02 08:00N 33°52' W 118°50'4 8.0
2017-Dec-02 07:30N 33°50' W 118°46'4 7.8
2017-Dec-02 07:00N 33°48' W 118°42'4 7.8
2017-Dec-02 06:30N 33°46' W 118°38'4 7.9
2017-Dec-02 06:00N 33°44' W 118°34'4 7.8
2017-Dec-02 05:30N 33°42' W 118°30'4 7.7
2017-Dec-02 05:00N 33°40' W 118°25'4 7.7
2017-Dec-02 04:30N 33°39' W 118°21'4 7.5
2017-Dec-02 04:00N 33°38' W 118°17'4 7.4
2017-Dec-02 03:30N 33°39' W 118°12'4 8.1
2017-Dec-02 03:00N 33°42' W 118°11'3 0.9
2017-Dec-02 00:18N 33°45' W 118°13'0 0.0
2017-Dec-01 23:24N 33°45' W 118°13'0 0.0
2017-Dec-01 23:00N 33°45' W 118°13'0 0.0
2017-Dec-01 19:48N 33°45' W 118°13'0 0.0
2017-Dec-01 15:24N 33°45' W 118°13'0 0.0
2017-Dec-01 14:00N 33°45' W 118°13'0 0.9
2017-Dec-01 13:30N 33°44' W 118°12'3 6.1
2017-Dec-01 13:00N 33°42' W 118°11'4 8.4
2017-Dec-01 12:31N 33°37' W 118°10'3 6.7
2017-Dec-01 12:01N 33°34' W 118°09'4 8.4
2017-Dec-01 11:30N 33°30' W 118°08'4 7.7
2017-Dec-01 11:01N 33°27' W 118°06'510.3
2017-Dec-01 10:30N 33°22' W 118°04'511.0
2017-Dec-01 10:00N 33°17' W 118°01'611.2
2017-Dec-01 09:30N 33°12' W 117°58'611.0
2017-Dec-01 09:00N 33°07' W 117°56'510.9
2017-Dec-01 08:30N 33°01' W 117°54'510.5
2017-Dec-01 08:00N 32°56' W 117°52'510.0
2017-Dec-01 07:30N 32°52' W 117°50'510.3
2017-Dec-01 07:00N 32°47' W 117°48'510.4
2017-Dec-01 06:31N 32°42' W 117°46'510.9
2017-Dec-01 06:01N 32°37' W 117°43'612.9
2017-Dec-01 05:30N 32°31' W 117°41'612.8
2017-Dec-01 05:00N 32°25' W 117°39'1112.9
2017-Dec-01 04:09N 32°14' W 117°35'313.0
2017-Dec-01 03:56N 32°11' W 117°34'  
Track history (hours):
 
Tides and Currents Weather Stations Pressure Air Temp Water Temp Dewpoint Dewpoint Depression Visibility Wind Speed Wind Dir Waves Ship Positions

Supreme Ace

Last reported at 2017-Dec-03 08:47 UTC. Time now 2017-Dec-16 15:14 UTC.
Position N 33°57' W 123°28'.
Warning: this ship's position is 13 days out of date.

Length 200 m; draft 8.4 m.

Type: Cargo ship. MMSI: 357147000.

Date/timePositionNaut miles runAvg speedWind from/ knotsBaromVisibWave heightAir tempDewpointWater temp
2017-Dec-03 08:47N 33°57' W 123°28'818.8
2017-Dec-03 08:20N 33°59' W 123°19'718.9
2017-Dec-03 07:58N 34°00' W 123°10'918.7
2017-Dec-03 07:30N 34°02' W 123°00'918.6
2017-Dec-03 07:00N 34°05' W 122°49'918.8
2017-Dec-03 06:30N 34°06' W 122°38'918.5
2017-Dec-03 06:01N 34°09' W 122°27'918.2
2017-Dec-03 05:30N 34°11' W 122°17'918.2
2017-Dec-03 05:00N 34°12' W 122°06'918.0
2017-Dec-03 04:30N 34°14' W 121°55'918.2
2017-Dec-03 04:00N 34°16' W 121°44'918.4
2017-Dec-03 03:30N 34°18' W 121°33'918.5
2017-Dec-03 03:01N 34°20' W 121°23'918.5
2017-Dec-03 02:30N 34°22' W 121°11'918.7
2017-Dec-03 02:00N 34°23' W 121°00'918.7
2017-Dec-03 01:30N 34°25' W 120°49'918.1
2017-Dec-03 01:00N 34°23' W 120°38'918.2
2017-Dec-03 00:31N 34°21' W 120°28'918.5
2017-Dec-03 00:00N 34°18' W 120°17'918.7
2017-Dec-02 23:31N 34°16' W 120°06'918.9
2017-Dec-02 23:00N 34°13' W 119°55'1019.0
2017-Dec-02 22:30N 34°11' W 119°44'919.0
2017-Dec-02 22:00N 34°08' W 119°33'918.6
2017-Dec-02 21:29N 34°06' W 119°21'713.8
2017-Dec-02 21:00N 34°08' W 119°14'2 2.4
2017-Dec-02 20:18N 34°09' W 119°12'0 0.0
2017-Dec-02 19:54N 34°09' W 119°12'0 0.0
2017-Dec-02 19:30N 34°09' W 119°12'0 0.0
2017-Dec-02 17:15N 34°09' W 119°12'0 0.0
2017-Dec-02 15:57N 34°09' W 119°12'0 0.0
2017-Dec-02 15:21N 34°09' W 119°12'0 0.0
2017-Dec-02 14:42N 34°09' W 119°12'0 0.0
2017-Dec-02 14:30N 34°09' W 119°12'0 0.0
2017-Dec-02 13:57N 34°09' W 119°12'0 0.0
2017-Dec-02 13:30N 34°09' W 119°12'2 4.5
2017-Dec-02 13:00N 34°07' W 119°14'3 5.4
2017-Dec-02 12:30N 34°05' W 119°15'3 6.1
2017-Dec-02 11:59N 34°03' W 119°12'1 1.5
2017-Dec-02 11:30N 34°04' W 119°13'3 6.0
2017-Dec-02 11:00N 34°02' W 119°10'3 5.6
2017-Dec-02 10:30N 34°01' W 119°07'1 2.7
2017-Dec-02 10:00N 34°00' W 119°06'4 7.1
2017-Dec-02 09:30N 33°58' W 119°02'4 7.9
2017-Dec-02 09:00N 33°56' W 118°58'4 7.8
2017-Dec-02 08:30N 33°54' W 118°54'4 7.9
2017-Dec-02 08:00N 33°52' W 118°50'4 8.0
2017-Dec-02 07:30N 33°50' W 118°46'4 7.8
2017-Dec-02 07:00N 33°48' W 118°42'4 7.8
2017-Dec-02 06:30N 33°46' W 118°38'4 7.9
2017-Dec-02 06:00N 33°44' W 118°34'4 7.8
2017-Dec-02 05:30N 33°42' W 118°30'4 7.7
2017-Dec-02 05:00N 33°40' W 118°25'4 7.7
2017-Dec-02 04:30N 33°39' W 118°21'4 7.5
2017-Dec-02 04:00N 33°38' W 118°17'4 7.4
2017-Dec-02 03:30N 33°39' W 118°12'4 8.1
2017-Dec-02 03:00N 33°42' W 118°11'3 0.9
2017-Dec-02 00:18N 33°45' W 118°13'0 0.0
2017-Dec-01 23:24N 33°45' W 118°13'0 0.0
2017-Dec-01 23:00N 33°45' W 118°13'0 0.0
2017-Dec-01 19:48N 33°45' W 118°13'0 0.0
2017-Dec-01 15:24N 33°45' W 118°13'0 0.0
2017-Dec-01 14:00N 33°45' W 118°13'0 0.9
2017-Dec-01 13:30N 33°44' W 118°12'3 6.1
2017-Dec-01 13:00N 33°42' W 118°11'4 8.4
2017-Dec-01 12:31N 33°37' W 118°10'3 6.7
2017-Dec-01 12:01N 33°34' W 118°09'4 8.4
2017-Dec-01 11:30N 33°30' W 118°08'4 7.7
2017-Dec-01 11:01N 33°27' W 118°06'510.3
2017-Dec-01 10:30N 33°22' W 118°04'511.0
2017-Dec-01 10:00N 33°17' W 118°01'611.2
2017-Dec-01 09:30N 33°12' W 117°58'611.0
2017-Dec-01 09:00N 33°07' W 117°56'510.9
2017-Dec-01 08:30N 33°01' W 117°54'510.5
2017-Dec-01 08:00N 32°56' W 117°52'510.0
2017-Dec-01 07:30N 32°52' W 117°50'510.3
2017-Dec-01 07:00N 32°47' W 117°48'510.4
2017-Dec-01 06:31N 32°42' W 117°46'510.9
2017-Dec-01 06:01N 32°37' W 117°43'612.9
2017-Dec-01 05:30N 32°31' W 117°41'612.8
2017-Dec-01 05:00N 32°25' W 117°39'1112.9
2017-Dec-01 04:09N 32°14' W 117°35'313.0
2017-Dec-01 03:56N 32°11' W 117°34'  

Dump ship's entire track history